Time;durP1;ratioP1;P1;durP2;ratioP2;P2;SDS_P1;SDS_P2;PMS_P1;PMS_P2;Temp;Humidity;BMP_temperature;BMP_pressure;BME280_temperature;BME280_humidity;BME280_pressure;Samples;Min_cycle;Max_cycle;Signal;HPM_P1;HPM_P2
2022/05/26 00:00:20;;;;;;;9.00;6.00;;;;;;;11.73;100.00;100948.91;7394233;19;20380;-56
2022/05/26 00:02:50;;;;;;;10.93;5.90;;;;;;;11.75;100.00;100934.31;7387270;19;20418;-58
2022/05/26 00:05:19;;;;;;;11.07;5.87;;;;;;;11.74;100.00;100942.91;7393911;19;20472;-59
2022/05/26 00:07:49;;;;;;;10.23;5.00;;;;;;;11.79;100.00;100943.09;7373535;19;20403;-59
2022/05/26 00:10:19;;;;;;;8.13;5.57;;;;;;;11.81;100.00;100940.56;7393842;19;20400;-58
2022/05/26 00:12:49;;;;;;;6.17;5.43;;;;;;;11.82;100.00;100932.88;7386204;19;20437;-58
2022/05/26 00:15:21;;;;;;;7.97;5.57;;;;;;;11.84;100.00;100943.28;7392783;19;20389;-56
2022/05/26 00:17:50;;;;;;;13.93;5.97;;;;;;;11.87;100.00;100938.22;7390475;19;20441;-58
2022/05/26 00:20:20;;;;;;;11.17;6.17;;;;;;;11.89;100.00;100932.28;7397166;19;20380;-60
2022/05/26 00:22:50;;;;;;;8.10;6.10;;;;;;;11.93;100.00;100934.97;7386719;19;20452;-58
2022/05/26 00:25:19;;;;;;;13.30;5.93;;;;;;;11.94;100.00;100929.88;7393707;19;20377;-59
2022/05/26 00:27:49;;;;;;;10.40;6.17;;;;;;;11.96;100.00;100925.66;7387613;19;20956;-56
2022/05/26 00:30:21;;;;;;;6.37;5.47;;;;;;;11.97;100.00;100922.25;7393550;19;20382;-56
2022/05/26 00:32:51;;;;;;;8.93;4.90;;;;;;;12.01;100.00;100924.13;7389402;19;20444;-60
2022/05/26 00:35:20;;;;;;;9.13;5.50;;;;;;;12.06;100.00;100926.94;7399170;19;20955;-57
2022/05/26 00:37:50;;;;;;;9.20;5.53;;;;;;;12.07;100.00;100920.94;7394979;19;20411;-57
2022/05/26 00:40:20;;;;;;;8.47;5.87;;;;;;;12.07;100.00;100913.19;7400631;19;20392;-58
2022/05/26 00:42:52;;;;;;;9.23;6.30;;;;;;;12.08;100.00;100916.63;7393068;19;20422;-55
2022/05/26 00:45:24;;;;;;;10.00;5.53;;;;;;;12.08;100.00;100925.28;7400266;19;20390;-58
2022/05/26 00:47:54;;;;;;;10.33;5.20;;;;;;;12.06;100.00;100913.13;7394333;19;20418;-57
2022/05/26 00:50:26;;;;;;;14.50;5.30;;;;;;;12.08;100.00;100921.81;7400399;19;20730;-55
2022/05/26 00:52:59;;;;;;;9.13;6.70;;;;;;;12.07;100.00;100917.47;7392382;19;20927;-59
2022/05/26 00:55:31;;;;;;;8.10;5.40;;;;;;;12.10;100.00;100918.47;7398370;19;20388;-56
2022/05/26 00:58:05;;;;;;;10.97;5.90;;;;;;;12.08;100.00;100925.28;7394046;19;20428;-59
2022/05/26 01:00:39;;;;;;;8.87;6.27;;;;;;;12.08;100.00;100921.81;7399840;19;20385;-58
2022/05/26 01:03:11;;;;;;;12.57;6.10;;;;;;;12.04;100.00;100925.13;7393121;19;20418;-58
2022/05/26 01:05:44;;;;;;;12.33;6.03;;;;;;;12.01;100.00;100924.13;7399770;19;20385;-58
2022/05/26 01:08:17;;;;;;;8.60;5.97;;;;;;;12.00;100.00;100927.53;7393532;19;20430;-55
2022/05/26 01:10:47;;;;;;;14.23;6.23;;;;;;;12.05;100.00;100929.47;7399369;19;20385;-57
2022/05/26 01:13:17;;;;;;;6.37;4.73;;;;;;;12.07;100.00;100927.81;7392418;19;20771;-58
2022/05/26 01:15:56;;;;;;;9.87;6.53;;;;;;;12.12;100.00;100931.44;7397666;19;20726;-55
2022/05/26 01:18:33;;;;;;;10.87;6.63;;;;;;;12.12;100.00;100931.44;7397392;19;21002;-54
2022/05/26 01:21:09;;;;;;;8.60;6.00;;;;;;;12.13;100.00;100928.94;7399290;19;20382;-56
2022/05/26 01:24:17;;;;;;;11.80;5.30;;;;;;;12.15;100.00;100926.38;7386963;19;20460;-52
2022/05/26 01:27:13;;;;;;;12.80;7.37;;;;;;;12.19;100.00;100933.44;7392482;19;20420;-57
2022/05/26 01:30:13;;;;;;;15.33;8.93;;;;;;;12.22;100.00;100928.41;7398906;19;20385;-56
2022/05/26 01:33:12;;;;;;;8.17;6.07;;;;;;;12.19;100.00;100932.59;7390917;19;20416;-56
2022/05/26 01:35:54;;;;;;;8.50;6.50;;;;;;;12.22;100.00;100937.84;7397326;19;20779;-58
2022/05/26 01:38:31;;;;;;;7.97;5.23;;;;;;;12.21;100.00;100936.97;7390894;19;20430;-58
2022/05/26 01:41:09;;;;;;;10.30;6.03;;;;;;;12.26;100.00;100940.59;7398538;19;20723;-58
2022/05/26 01:43:44;;;;;;;8.70;6.00;;;;;;;12.26;100.00;100940.59;7393680;19;20420;-56
2022/05/26 01:46:19;;;;;;;8.70;6.33;;;;;;;12.30;100.00;100941.59;7392532;19;20376;-58
2022/05/26 01:48:54;;;;;;;13.20;6.40;;;;;;;12.31;100.00;100942.50;7402319;19;20394;-59
2022/05/26 01:51:30;;;;;;;12.80;6.47;;;;;;;12.33;100.00;100940.84;7392734;19;20383;-57
2022/05/26 01:54:07;;;;;;;13.43;7.10;;;;;;;12.32;100.00;100942.56;7394911;19;20411;-58
2022/05/26 01:56:40;;;;;;;9.53;5.87;;;;;;;12.31;100.00;100938.19;7391459;19;20406;-56
2022/05/26 01:59:11;;;;;;;14.63;6.80;;;;;;;12.31;100.00;100939.91;7398073;19;20404;-57
2022/05/26 02:01:43;;;;;;;13.90;6.53;;;;;;;12.28;100.00;100938.97;7392025;19;20422;-55
2022/05/26 02:04:17;;;;;;;10.50;6.83;;;;;;;12.28;100.00;100944.16;7395696;19;20416;-56
2022/05/26 02:06:53;;;;;;;18.83;7.07;;;;;;;12.27;100.00;100942.38;7392525;19;20425;-57
2022/05/26 02:09:25;;;;;;;10.07;6.97;;;;;;;12.28;100.00;100949.31;7397623;19;20390;-58
2022/05/26 02:11:59;;;;;;;9.40;6.53;;;;;;;12.27;100.00;100942.38;7392093;19;20422;-55
2022/05/26 02:14:33;;;;;;;11.60;6.83;;;;;;;12.26;100.00;100938.03;7397759;19;20918;-59
2022/05/26 02:17:07;;;;;;;9.23;6.37;;;;;;;12.24;100.00;100946.53;7390995;19;20433;-59
2022/05/26 02:19:39;;;;;;;9.80;6.43;;;;;;;12.26;100.00;100950.97;7401583;19;20730;-55
2022/05/26 02:22:20;;;;;;;16.70;8.23;;;;;;;12.27;100.00;100946.69;7390423;19;20422;-55
2022/05/26 02:24:54;;;;;;;13.40;7.70;;;;;;;12.26;100.00;100945.78;7397055;19;20390;-58
2022/05/26 02:27:26;;;;;;;10.13;7.10;;;;;;;12.27;100.00;100942.38;7391732;19;20437;-57
2022/05/26 02:29:59;;;;;;;14.90;7.40;;;;;;;12.24;100.00;100941.38;7396822;19;20730;-56
2022/05/26 02:32:32;;;;;;;11.73;6.97;;;;;;;12.24;100.00;100938.78;7390728;19;20975;-56
2022/05/26 02:35:03;;;;;;;8.10;4.80;;;;;;;12.24;100.00;100942.25;7396437;19;20392;-57
2022/05/26 02:37:37;;;;;;;15.40;7.80;;;;;;;12.25;100.00;100944.03;7391489;19;20436;-59
2022/05/26 02:40:09;;;;;;;16.93;7.60;;;;;;;12.26;100.00;100958.72;7396525;19;20425;-56
2022/05/26 02:42:47;;;;;;;12.83;7.50;;;;;;;12.27;100.00;100957.03;7389140;19;20422;-58
2022/05/26 02:45:18;;;;;;;13.33;7.10;;;;;;;12.30;100.00;100951.94;7396136;19;20732;-58
2022/05/26 02:47:53;;;;;;;14.57;8.50;;;;;;;12.29;100.00;100958.84;7390935;19;20408;-59
2022/05/26 02:50:39;;;;;;;14.77;7.67;;;;;;;12.31;100.00;100958.03;7396748;19;20390;-56
2022/05/26 02:53:20;;;;;;;12.80;7.47;;;;;;;12.33;100.00;100967.59;7388335;19;20421;-55
2022/05/26 02:55:58;;;;;;;15.60;7.40;;;;;;;12.29;100.00;100961.44;7395138;19;20394;-55
2022/05/26 02:58:41;;;;;;;15.50;8.13;;;;;;;12.35;100.00;100965.94;7390953;19;20420;-56
2022/05/26 03:01:21;;;;;;;16.63;6.37;;;;;;;12.30;100.00;100964.88;7390181;19;20390;-56
2022/05/26 03:03:53;;;;;;;12.00;7.43;;;;;;;12.34;100.00;100968.47;7393560;19;20430;-57
2022/05/26 03:06:26;;;;;;;11.33;7.07;;;;;;;12.33;100.00;100961.53;7390703;19;20410;-56
2022/05/26 03:08:58;;;;;;;16.50;7.83;;;;;;;12.37;100.00;100978.94;7395293;19;20396;-55
2022/05/26 03:11:29;;;;;;;12.37;7.63;;;;;;;12.35;100.00;100967.66;7390602;19;20947;-56
2022/05/26 03:13:58;;;;;;;15.67;8.60;;;;;;;12.37;100.00;100966.00;7393062;19;20419;-58
2022/05/26 03:16:28;;;;;;;11.20;7.50;;;;;;;12.37;100.00;100972.06;7389627;19;20403;-57
2022/05/26 03:18:58;;;;;;;14.00;8.00;;;;;;;12.37;100.00;100966.88;7399236;19;20402;-53
2022/05/26 03:21:27;;;;;;;16.27;8.43;;;;;;;12.38;100.00;100980.72;7392724;19;20419;-58
2022/05/26 03:23:59;;;;;;;12.23;7.57;;;;;;;12.37;100.00;100973.78;7393421;19;20430;-54
2022/05/26 03:26:29;;;;;;;21.80;9.30;;;;;;;12.37;100.00;100981.53;7389744;19;20414;-54
2022/05/26 03:28:58;;;;;;;15.10;6.43;;;;;;;12.32;100.00;100972.72;7394610;19;20390;-59
2022/05/26 03:31:28;;;;;;;11.70;8.10;;;;;;;12.31;100.00;100983.88;7388867;19;20434;-55
2022/05/26 03:42:07;;;;;;;16.97;5.70;;;;;;;12.21;100.00;100978.34;7388652;19;20426;-59
2022/05/26 03:44:37;;;;;;;18.57;8.73;;;;;;;12.21;100.00;100975.75;7394462;19;20385;-57
2022/05/26 03:47:07;;;;;;;15.90;7.40;;;;;;;12.18;100.00;100980.84;7389033;19;20965;-58
2022/05/26 03:49:37;;;;;;;15.50;8.27;;;;;;;12.19;100.00;100987.75;7394496;19;20394;-58
2022/05/26 03:52:07;;;;;;;11.87;8.47;;;;;;;12.15;100.00;100988.47;7388231;19;20414;-56
2022/05/26 03:54:39;;;;;;;15.30;9.00;;;;;;;12.18;100.00;100992.88;7394495;19;20386;-57
2022/05/26 03:57:09;;;;;;;17.03;9.03;;;;;;;12.20;100.00;100994.69;7388042;19;20426;-58
2022/05/26 03:59:42;;;;;;;12.70;8.27;;;;;;;12.22;100.00;100995.66;7394034;19;20398;-55
2022/05/26 04:02:13;;;;;;;16.43;8.63;;;;;;;12.23;100.00;100997.41;7388363;19;20419;-56
2022/05/26 04:04:42;;;;;;;14.30;8.10;;;;;;;12.27;100.00;101006.19;7394352;19;20390;-59
2022/05/26 04:07:12;;;;;;;17.70;8.90;;;;;;;12.29;100.00;101018.34;7385855;19;20409;-52
2022/05/26 04:09:44;;;;;;;19.87;7.87;;;;;;;12.34;100.00;101015.03;7395877;19;20388;-58
2022/05/26 04:12:17;;;;;;;21.43;9.40;;;;;;;12.37;100.00;101017.75;7387097;19;20650;-56
2022/05/26 04:14:47;;;;;;;17.13;6.87;;;;;;;12.37;100.00;101013.44;7393671;19;20930;-59
2022/05/26 04:17:16;;;;;;;15.73;7.40;;;;;;;12.36;100.00;101011.69;7389194;19;20448;-58
2022/05/26 04:19:45;;;;;;;15.70;8.83;;;;;;;12.40;100.00;101015.28;7393696;19;20386;-54
2022/05/26 04:22:19;;;;;;;18.57;8.17;;;;;;;12.43;100.00;101016.28;7387513;19;20430;-57
2022/05/26 04:24:52;;;;;;;16.27;7.97;;;;;;;12.43;100.00;101003.34;7393533;19;20387;-57
2022/05/26 04:27:24;;;;;;;13.93;8.37;;;;;;;12.50;100.00;101014.81;7388079;19;20764;-56
2022/05/26 04:29:53;;;;;;;13.43;7.77;;;;;;;12.53;100.00;101017.53;7393194;19;20390;-55
2022/05/26 04:32:25;;;;;;;14.53;7.20;;;;;;;12.53;100.00;101012.38;7387399;19;20444;-58
2022/05/26 04:34:56;;;;;;;13.90;6.93;;;;;;;12.50;100.00;100996.69;7393103;19;20410;-59
2022/05/26 04:37:27;;;;;;;13.73;7.40;;;;;;;12.52;100.00;101013.16;7387250;19;20434;-57
2022/05/26 04:40:00;;;;;;;11.50;6.63;;;;;;;12.52;100.00;101039.03;7393087;19;20374;-58
2022/05/26 04:42:30;;;;;;;14.40;7.90;;;;;;;12.56;100.00;101024.50;7386555;19;20439;-57
2022/05/26 04:45:00;;;;;;;18.03;8.47;;;;;;;12.58;100.00;101019.41;7392491;19;20388;-55
2022/05/26 04:47:30;;;;;;;20.23;9.10;;;;;;;12.62;100.00;101035.09;7387200;19;20423;-55
2022/05/26 04:50:00;;;;;;;19.27;8.53;;;;;;;12.62;100.00;101039.41;7393140;19;20392;-53
2022/05/26 04:52:29;;;;;;;9.10;6.63;;;;;;;12.56;100.00;101047.81;7386024;19;20419;-57
2022/05/26 04:55:01;;;;;;;11.73;7.90;;;;;;;12.58;100.00;101045.28;7392629;19;20391;-59
2022/05/26 04:57:31;;;;;;;23.93;8.20;;;;;;;12.61;100.00;101051.44;7385840;19;20433;-54
2022/05/26 05:00:00;;;;;;;13.77;7.63;;;;;;;12.58;100.00;101050.44;7392310;19;20390;-58
2022/05/26 05:02:30;;;;;;;14.10;7.43;;;;;;;12.60;100.00;101054.00;7386242;19;20446;-57
2022/05/26 05:05:00;;;;;;;23.20;7.50;;;;;;;12.61;100.00;101056.63;7392904;19;20817;-58
2022/05/26 05:07:29;;;;;;;14.63;6.70;;;;;;;12.67;100.00;101062.03;7385899;19;20428;-57
2022/05/26 05:10:01;;;;;;;20.27;8.43;;;;;;;12.71;100.00;101062.16;7392206;19;20843;-55
2022/05/26 05:12:31;;;;;;;15.47;7.03;;;;;;;12.71;100.00;101065.63;7384384;19;20767;-53
2022/05/26 05:15:00;;;;;;;15.63;7.23;;;;;;;12.75;100.00;101069.22;7391955;19;20387;-55
2022/05/26 05:17:30;;;;;;;16.83;7.07;;;;;;;12.76;100.00;101082.22;7386981;19;20524;-53
2022/05/26 05:20:00;;;;;;;20.27;6.30;;;;;;;12.73;100.00;101082.13;7395894;19;20401;-54
2022/05/26 05:22:32;;;;;;;18.57;6.43;;;;;;;12.75;100.00;101080.47;7392381;19;20427;-55
2022/05/26 05:25:10;;;;;;;13.73;6.63;;;;;;;12.85;100.00;101080.78;7399164;19;20455;-53
2022/05/26 05:27:41;;;;;;;15.13;7.30;;;;;;;12.89;100.00;101070.63;7393030;19;20433;-52
2022/05/26 05:30:17;;;;;;;13.17;5.90;;;;;;;12.94;100.00;101068.19;7399210;19;20402;-51
2022/05/26 05:32:49;;;;;;;14.50;6.63;;;;;;;12.80;100.00;101068.56;7392246;19;20945;-58
2022/05/26 05:35:20;;;;;;;16.00;5.87;;;;;;;12.85;100.00;101075.63;7399261;19;20741;-52
2022/05/26 05:37:50;;;;;;;12.17;5.30;;;;;;;12.90;100.00;101076.66;7391739;19;20779;-59
2022/05/26 05:40:22;;;;;;;19.23;6.60;;;;;;;12.85;100.00;101075.63;7398930;19;20443;-59
2022/05/26 05:42:52;;;;;;;13.97;5.57;;;;;;;12.97;100.00;101081.25;7390128;19;21015;-58
2022/05/26 05:45:22;;;;;;;9.47;4.53;;;;;;;12.91;100.00;101081.03;7398198;19;20386;-58
2022/05/26 05:47:52;;;;;;;15.87;6.13;;;;;;;12.97;100.00;101073.47;7394620;19;20443;-57
2022/05/26 05:50:21;;;;;;;12.57;4.70;;;;;;;13.02;100.00;101089.22;7398653;19;20391;-58
2022/05/26 05:52:51;;;;;;;20.00;6.37;;;;;;;13.04;100.00;101087.56;7391747;19;20975;-56
2022/05/26 05:55:23;;;;;;;17.87;5.70;;;;;;;13.08;100.00;101090.31;7397975;19;20395;-59
2022/05/26 05:57:52;;;;;;;23.00;5.87;;;;;;;13.06;100.00;101076.44;7393327;19;20449;-53
2022/05/26 06:00:22;;;;;;;12.57;5.77;;;;;;;13.16;100.00;101087.09;7398300;19;20394;-58
2022/05/26 06:02:58;;;;;;;22.70;7.20;;;;;;;13.20;100.00;101092.47;7391706;19;20441;-54
2022/05/26 06:05:27;;;;;;;35.47;11.83;;;;;;;13.23;100.00;101089.13;7398006;19;20463;-58
2022/05/26 06:07:57;;;;;;;18.37;7.47;;;;;;;13.32;100.00;101094.63;7391885;19;20424;-57
2022/05/26 06:10:31;;;;;;;21.83;10.50;;;;;;;13.21;100.00;101085.56;7397895;19;20388;-55
2022/05/26 06:13:01;;;;;;;35.57;18.63;;;;;;;13.40;100.00;101091.41;7390469;19;20976;-58
2022/05/26 06:15:32;;;;;;;25.30;10.53;;;;;;;13.51;100.00;101092.72;7398120;19;20723;-56
2022/05/26 06:18:02;;;;;;;23.63;10.00;;;;;;;13.55;100.00;101075.56;7392531;19;20461;-56
2022/05/26 06:20:31;;;;;;;14.37;7.23;;;;;;;13.56;100.00;101086.00;7397581;19;20393;-54
2022/05/26 06:23:01;;;;;;;22.43;9.03;;;;;;;13.61;100.00;101079.25;7390702;19;20418;-51
2022/05/26 06:25:33;;;;;;;24.20;11.33;;;;;;;13.57;100.00;101074.78;7397251;19;20385;-59
2022/05/26 06:30:45;;;;;;;13.07;3.77;;;;;;;13.75;100.00;101051.19;7396260;19;20394;-56
2022/05/26 06:38:41;;;;;;;34.63;15.50;;;;;;;13.61;100.00;101014.44;7394941;19;20435;-57
2022/05/26 06:43:59;;;;;;;13.23;4.10;;;;;;;13.59;100.00;101021.28;7393401;19;20776;-56
2022/05/26 06:46:29;;;;;;;23.20;8.40;;;;;;;13.78;100.00;101016.69;7388690;19;20425;-58
2022/05/26 06:48:58;;;;;;;18.73;7.20;;;;;;;13.59;100.00;101017.81;7396408;19;20384;-53
2022/05/26 06:51:29;;;;;;;16.63;6.93;;;;;;;13.60;100.00;101006.59;7388133;19;20467;-58
2022/05/26 06:53:58;;;;;;;12.13;4.73;;;;;;;13.74;100.00;101020.91;7393601;19;20435;-57
2022/05/26 06:56:30;;;;;;;18.30;8.47;;;;;;;13.82;100.00;101022.84;7387369;19;20499;-57
2022/05/26 06:59:00;;;;;;;16.70;3.50;;;;;;;14.01;100.00;101019.16;7394456;19;20382;-59
2022/05/26 07:01:29;;;;;;;11.73;4.67;;;;;;;14.11;100.00;100978.81;7385021;19;20433;-53
2022/05/26 07:04:00;;;;;;;14.50;4.47;;;;;;;14.09;100.00;100928.63;7393326;19;20773;-58
2022/05/26 07:06:31;;;;;;;12.33;3.33;;;;;;;14.13;100.00;100891.53;7385613;19;20431;-56
2022/05/26 07:09:01;;;;;;;10.83;3.50;;;;;;;14.23;100.00;100843.38;7395735;19;20396;-57
2022/05/26 07:11:33;;;;;;;13.40;5.43;;;;;;;14.25;100.00;100810.56;7389274;19;20425;-58
2022/05/26 07:14:02;;;;;;;6.63;2.40;;;;;;;14.45;100.00;100778.25;7393474;19;20942;-56
2022/05/26 07:16:32;;;;;;;22.20;11.43;;;;;;;14.48;100.00;100766.16;7387039;19;20414;-56
2022/05/26 07:19:02;;;;;;;22.83;10.00;;;;;;;14.46;100.00;100737.56;7398635;19;20417;-55
2022/05/26 07:21:31;;;;;;;9.00;4.00;;;;;;;14.50;100.00;100681.44;7385745;19;20405;-56
2022/05/26 07:24:01;;;;;;;24.40;7.47;;;;;;;14.38;100.00;100645.66;7392894;19;20414;-57
2022/05/26 07:26:34;;;;;;;32.47;10.20;;;;;;;14.03;100.00;100644.84;7388690;19;20416;-55
2022/05/26 07:29:04;;;;;;;19.83;6.00;;;;;;;13.91;100.00;100650.56;7395117;19;20384;-56
2022/05/26 07:31:34;;;;;;;8.77;1.70;;;;;;;14.05;100.00;100642.25;7389122;19;20413;-54
2022/05/26 07:34:04;;;;;;;19.77;5.57;;;;;;;14.09;100.00;100662.25;7393182;19;20439;-57
2022/05/26 07:42:03;;;;;;;10.23;2.90;;;;;;;14.43;100.00;100694.28;7386287;19;20797;-56
2022/05/26 07:44:35;;;;;;;10.37;2.40;;;;;;;14.51;100.00;100724.72;7395226;19;20402;-55
2022/05/26 07:47:06;;;;;;;4.57;1.70;;;;;;;14.47;100.00;100725.47;7388786;19;20453;-58
2022/05/26 07:49:36;;;;;;;6.20;1.70;;;;;;;14.40;100.00;100753.00;7394518;19;20408;-59
2022/05/26 07:52:06;;;;;;;8.87;3.00;;;;;;;14.41;100.00;100750.44;7388422;19;20423;-57
2022/05/26 07:54:36;;;;;;;7.90;2.30;;;;;;;14.46;100.00;100747.97;7394757;19;20475;-57
2022/05/26 07:57:10;;;;;;;8.43;2.13;;;;;;;14.41;100.00;100766.00;7387627;19;20968;-57
2022/05/26 07:59:40;;;;;;;8.70;1.70;;;;;;;14.44;100.00;100766.09;7392952;19;20405;-57
2022/05/26 08:02:10;;;;;;;18.93;6.10;;;;;;;14.51;100.00;100816.44;7387877;19;20414;-58
2022/05/26 08:04:39;;;;;;;15.43;5.13;;;;;;;14.51;100.00;100844.16;7394062;19;20417;-57
2022/05/26 08:07:09;;;;;;;12.20;3.07;;;;;;;14.47;100.00;100866.53;7388188;19;20851;-56
2022/05/26 08:09:40;;;;;;;7.63;1.40;;;;;;;14.48;100.00;100882.97;7393564;19;20390;-58
2022/05/26 08:12:14;;;;;;;6.83;1.63;;;;;;;14.49;100.00;100883.03;7387331;19;20428;-57
2022/05/26 08:14:45;;;;;;;4.90;1.03;;;;;;;14.52;100.00;100897.81;7394481;19;20384;-58
2022/05/26 08:17:16;;;;;;;5.03;1.27;;;;;;;14.81;100.00;100890.84;7389332;19;20443;-58
2022/05/26 08:19:46;;;;;;;8.33;1.30;;;;;;;14.85;100.00;100943.75;7392306;19;20387;-57
2022/05/26 08:22:17;;;;;;;5.87;1.70;;;;;;;14.84;100.00;100921.22;7388833;19;20765;-57
2022/05/26 08:24:51;;;;;;;3.77;0.90;;;;;;;14.83;100.00;100942.84;7392682;19;20401;-56
2022/05/26 08:27:24;;;;;;;7.23;1.67;;;;;;;14.82;100.00;100939.34;7388524;19;20409;-58
2022/05/26 08:29:54;;;;;;;4.30;1.00;;;;;;;14.64;100.00;100911.13;7392866;19;20400;-55
2022/05/26 08:32:25;;;;;;;10.37;1.17;;;;;;;14.86;100.00;100901.34;7386644;19;20780;-54
2022/05/26 08:34:59;;;;;;;4.43;1.10;;;;;;;15.04;100.00;100913.97;7393235;19;20394;-58
2022/05/26 08:37:29;;;;;;;9.20;2.73;;;;;;;14.99;100.00;100937.19;7387382;19;20443;-60
2022/05/26 08:39:59;;;;;;;10.23;1.90;;;;;;;15.18;100.00;100942.88;7391485;19;20397;-60
2022/05/26 08:42:33;;;;;;;7.23;1.10;;;;;;;14.95;100.00;100966.56;7385844;19;20434;-58
2022/05/26 08:45:06;;;;;;;5.93;1.30;;;;;;;15.11;100.00;100961.75;7392770;19;20383;-59
2022/05/26 08:47:39;;;;;;;5.23;0.90;;;;;;;14.83;100.00;100982.66;7388367;19;20415;-60
2022/05/26 08:50:11;;;;;;;8.93;0.80;;;;;;;14.76;100.00;101013.63;7392751;19;20391;-55
2022/05/26 08:52:44;;;;;;;4.80;1.13;;;;;;;14.61;100.00;101011.44;7385888;19;20411;-59
2022/05/26 08:55:19;;;;;;;8.20;1.17;;;;;;;14.57;100.00;101021.72;7400973;19;20383;-56
2022/05/26 08:57:55;;;;;;;5.17;1.13;;;;;;;14.63;100.00;101015.84;7395684;19;20443;-58
2022/05/26 09:00:26;;;;;;;4.30;1.10;;;;;;;14.39;100.00;101021.16;7401309;19;20387;-58
2022/05/26 09:02:58;;;;;;;3.63;1.00;;;;;;;14.37;100.00;101034.13;7395408;19;20455;-59
2022/05/26 09:05:31;;;;;;;7.77;1.33;;;;;;;14.49;100.00;101030.09;7401011;19;20391;-56
2022/05/26 09:13:35;;;;;;;8.17;2.07;;;;;;;15.03;100.00;101047.28;7398319;19;20442;-57
2022/05/26 09:16:06;;;;;;;7.03;1.70;;;;;;;15.15;100.00;101041.56;7403060;19;20391;-55
2022/05/26 09:18:36;;;;;;;9.50;3.27;;;;;;;15.21;100.00;101046.94;7402629;19;20443;-55
2022/05/26 09:21:24;;;;;;;5.30;1.53;;;;;;;15.05;100.00;101065.53;7403051;19;20392;-56
2022/05/26 09:23:54;;;;;;;4.70;1.10;;;;;;;14.62;100.00;101073.81;7399898;19;20431;-53
2022/05/26 09:26:25;;;;;;;5.27;1.27;;;;;;;14.55;100.00;101053.66;7397386;19;20755;-53
2022/05/26 09:29:10;;;;;;;4.40;1.03;;;;;;;14.79;100.00;101081.22;7402945;19;20394;-57
2022/05/26 09:31:47;;;;;;;9.27;1.27;;;;;;;15.12;100.00;101077.84;7396606;19;20453;-53
2022/05/26 09:34:23;;;;;;;5.30;1.10;;;;;;;15.13;100.00;101103.00;7400313;19;20423;-55
2022/05/26 09:36:55;;;;;;;5.60;1.73;;;;;;;15.23;100.00;101102.41;7396084;19;20800;-55
2022/05/26 09:39:30;;;;;;;8.63;1.47;;;;;;;15.61;100.00;101113.81;7401627;19;20940;-55
2022/05/26 09:42:00;;;;;;;6.87;1.17;;;;;;;15.39;100.00;101123.66;7395193;19;20499;-54
2022/05/26 09:44:53;;;;;;;4.37;1.13;;;;;;;15.46;100.00;101133.38;7401795;19;20476;-55
2022/05/26 09:47:29;;;;;;;4.97;1.13;;;;;;;15.82;100.00;101136.94;7395782;19;20444;-56
2022/05/26 09:50:00;;;;;;;6.07;1.73;;;;;;;15.76;100.00;101140.25;7401698;19;20395;-56
2022/05/26 09:52:31;;;;;;;12.73;1.30;;;;;;;15.72;100.00;101156.63;7394360;19;20447;-54
2022/05/26 09:55:18;;;;;;;6.17;1.10;;;;;;;15.83;100.00;101151.69;7402401;19;20412;-54
2022/05/26 09:57:48;;;;;;;7.07;1.00;;;;;;;15.88;100.00;101138.78;7395996;19;20526;-55
2022/05/26 10:00:35;;;;;;;4.80;0.97;;;;;;;15.80;100.00;101146.41;7400427;19;20412;-57
2022/05/26 10:03:10;;;;;;;5.60;1.03;;;;;;;15.75;100.00;101153.22;7393172;19;20969;-57
2022/05/26 10:05:47;;;;;;;4.60;1.30;;;;;;;15.66;100.00;101161.66;7400074;19;20403;-54
2022/05/26 10:08:21;;;;;;;6.90;1.60;;;;;;;15.86;100.00;101153.50;7395322;19;20969;-57
2022/05/26 10:10:55;;;;;;;7.70;1.10;;;;;;;15.98;100.00;101145.16;7401433;19;20473;-56
2022/05/26 10:13:38;;;;;;;5.60;1.70;;;;;;;16.11;100.00;101141.16;7393510;19;20441;-55
2022/05/26 10:16:15;;;;;;;6.33;1.03;;;;;;;16.30;100.00;101142.47;7394259;19;20397;-59
2022/05/26 10:18:57;;;;;;;4.77;0.90;;;;;;;15.93;100.00;101143.34;7400736;19;20397;-57
2022/05/26 10:21:36;;;;;;;4.03;0.90;;;;;;;16.18;100.00;101124.84;7391345;19;20412;-55
2022/05/26 10:24:38;;;;;;;12.33;3.73;;;;;;;16.13;100.00;101142.06;7395176;19;20418;-56
2022/05/26 10:27:17;;;;;;;9.43;1.67;;;;;;;16.19;100.00;101135.28;7388896;19;20426;-56
2022/05/26 10:30:06;;;;;;;29.67;11.97;;;;;;;16.04;100.00;101146.19;7396784;19;20389;-57
2022/05/26 10:32:47;;;;;;;30.43;12.23;;;;;;;15.72;100.00;101151.41;7390086;19;20425;-57
2022/05/26 10:35:23;;;;;;;10.43;4.10;;;;;;;15.57;100.00;101146.66;7396834;19;20385;-55
2022/05/26 10:38:11;;;;;;;48.27;28.33;;;;;;;15.51;100.00;101149.09;7390039;19;20747;-56
2022/05/26 10:40:49;;;;;;;12.63;2.80;;;;;;;15.33;100.00;101133.88;7395275;19;20381;-55
2022/05/26 10:43:21;;;;;;;4.70;1.70;;;;;;;15.18;100.00;101134.31;7389257;19;20413;-59
2022/05/26 10:45:52;;;;;;;8.23;2.20;;;;;;;15.64;100.00;101133.00;7395732;19;20376;-57
2022/05/26 10:48:31;;;;;;;26.03;11.57;;;;;;;16.18;100.00;101143.06;7391209;19;20445;-57
2022/05/26 10:51:05;;;;;;;15.90;5.93;;;;;;;15.79;100.00;101135.13;7395968;19;20745;-58
2022/05/26 10:53:38;;;;;;;21.90;6.10;;;;;;;16.33;100.00;101143.44;7393148;19;20416;-58
2022/05/26 10:56:13;;;;;;;8.50;2.63;;;;;;;16.48;100.00;101136.84;7392905;19;20392;-61
2022/05/26 10:58:45;;;;;;;36.47;12.63;;;;;;;16.31;100.00;101136.44;7395007;19;20405;-56
2022/05/26 11:01:34;;;;;;;4.73;1.10;;;;;;;16.90;100.00;101129.06;7389467;19;20468;-56
2022/05/26 11:04:15;;;;;;;7.00;2.00;;;;;;;16.88;100.00;101145.53;7394216;19;20426;-56
2022/05/26 11:06:46;;;;;;;7.17;1.80;;;;;;;16.95;100.00;101145.66;7389451;19;20424;-56
2022/05/26 11:09:19;;;;;;;10.47;5.03;;;;;;;16.67;100.00;101139.88;7395805;19;20403;-57
2022/05/26 11:11:51;;;;;;;14.27;6.60;;;;;;;16.31;100.00;101157.28;7388585;19;20948;-54
2022/05/26 11:19:58;;;;;;;7.73;2.73;;;;;;;15.86;100.00;101171.72;7396492;19;20542;-57
2022/05/26 11:22:28;;;;;;;6.30;2.27;;;;;;;15.86;100.00;101150.91;7388424;19;20956;-56
2022/05/26 11:25:00;;;;;;;7.57;1.93;;;;;;;15.97;100.00;101159.91;7394694;19;20394;-57
2022/05/26 11:27:34;;;;;;;23.37;8.73;;;;;;;15.77;100.00;101169.75;7392090;19;20422;-55
2022/05/26 11:30:07;;;;;;;15.90;4.00;;;;;;;16.32;100.00;101162.50;7394971;19;20387;-56
2022/05/26 11:38:12;;;;;;;9.70;2.97;;;;;;;16.03;100.00;101175.66;7387368;19;20415;-59
2022/05/26 11:40:47;;;;;;;5.80;0.90;;;;;;;15.80;100.00;101151.63;7393732;19;20397;-59
2022/05/26 11:43:25;;;;;;;18.23;4.77;;;;;;;15.88;100.00;101170.00;7388440;19;20527;-59
2022/05/26 11:45:56;;;;;;;9.13;1.63;;;;;;;15.98;100.00;101160.75;7394368;19;20426;-58
2022/05/26 11:48:47;;;;;;;4.87;1.30;;;;;;;15.86;100.00;101170.00;7387976;19;20458;-55
2022/05/26 11:51:38;;;;;;;6.90;3.23;;;;;;;16.00;100.00;101149.56;7388873;19;20825;-57
2022/05/26 11:54:08;;;;;;;10.73;3.87;;;;;;;16.13;100.00;101153.34;7392683;19;20485;-59
2022/05/26 11:56:44;;;;;;;8.60;2.03;;;;;;;16.12;100.00;101154.22;7390845;19;20405;-57
2022/05/26 11:59:26;;;;;;;20.40;5.80;;;;;;;15.96;100.00;101152.94;7393111;19;20450;-58
2022/05/26 12:02:18;;;;;;;5.83;1.93;;;;;;;15.97;100.00;101154.69;7387039;19;20455;-59
2022/05/26 12:04:49;;;;;;;4.70;1.23;;;;;;;15.94;100.00;101159.81;7394142;19;20412;-58
2022/05/26 12:07:40;;;;;;;8.40;1.23;;;;;;;15.78;100.00;101153.28;7387870;19;20947;-58
2022/05/26 12:10:23;;;;;;;10.20;1.77;;;;;;;15.96;100.00;101162.44;7393935;19;20401;-59
2022/05/26 12:13:40;;;;;;;12.97;3.37;;;;;;;16.27;100.00;101147.63;7387532;19;20435;-59
2022/05/26 12:16:27;;;;;;;6.47;1.37;;;;;;;16.19;100.00;101170.84;7386704;19;20410;-58
2022/05/26 12:18:59;;;;;;;44.60;11.33;;;;;;;16.14;100.00;101160.31;7396035;19;20415;-60
2022/05/26 12:21:44;;;;;;;8.67;2.60;;;;;;;16.14;100.00;101146.41;7390342;19;20404;-59